• Join FlightAware (Why Join?)
  • Login
  • US Flag 
08:09PM EDT


 

Airport Tracker/Info


-or-


 

Live Flight TrackerFlight Track Log ✈ AWE720 ✈ 06-May-2012 ✈ KCLT - LIRF / FCO

Flight Track Log - Related Links

Times and Time Zones

All times are in EDT time to prevent confusion due to time zone crossing. See the AWE720 flight status page for this flight to view local times or setup timezone preferences in your user account.

Time Position Orientation Groundspeed Altitude Reporting Facility
EDT Latitude Longitude Course Direction KTS MPH feet Rate Location/Type
06:33PM 35.2383 -80.9544 70° East 173 199 1,600  Level FAA TRACON SMA TRACON (SMA)
06:37PM 35.3083 -80.7175 83° East 269 310 8,300 1,800 Climbing Atlanta Center
06:37PM 35.3136 -80.6661 84° East 273 314 9,500 1,680 Climbing FAA TRACON SMA TRACON (SMA)
06:38PM 35.3206 -80.5903 83° East 287 330 10,500 1,080 Climbing FAA TRACON SMA TRACON (SMA)
06:39PM 35.3264 -80.5294 76° East 320 368 11,000 780 Climbing FAA TRACON SMA TRACON (SMA)
06:39PM 35.3431 -80.4458 69° East 369 425 11,600 1,380 Climbing FAA TRACON SMA TRACON (SMA)
06:40PM 35.3686 -80.3622 70° East 378 435 12,900 1,920 Climbing FAA TRACON SMA TRACON (SMA)
06:41PM 35.3947 -80.2758 70° East 387 445 14,200 1,800 Climbing FAA TRACON SMA TRACON (SMA)
06:41PM 35.4181 -80.1981 71° East 392 451 15,300 1,500 Climbing FAA TRACON SMA TRACON (SMA)
06:42PM 35.4428 -80.1075 73° East 402 463 16,200 1,560 Climbing FAA TRACON SMA TRACON (SMA)
06:43PM 35.4647 -80.0206 72° East 409 471 17,400 1,680 Climbing FAA TRACON SMA TRACON (SMA)
06:43PM 35.4881 -79.9306 72° East 411 473 18,500 1,380 Climbing FAA TRACON SMA TRACON (SMA)
06:44PM 35.5064 -79.8594 73° East 413 475 19,300 1,500 Climbing FAA TRACON SMA TRACON (SMA)
06:45PM 35.5619 -79.6364 72° East 414 476 21,700 1,440 Climbing Washington Center
06:46PM 35.5953 -79.5078 68° East 424 488 22,900 1,140 Climbing Washington Center
06:47PM 35.6442 -79.3569 64° Northeast 424 488 24,100 1,020 Climbing Washington Center
06:48PM 35.6939 -79.2339 64° Northeast 432 497 25,000 900 Climbing Washington Center
06:49PM 35.7481 -79.0983 63° Northeast 439 505 25,900 780 Climbing Washington Center
06:50PM 35.8064 -78.9547 64° Northeast 452 520 26,700 720 Climbing Washington Center
06:51PM 35.8644 -78.8086 59° Northeast 466 536 27,400 660 Climbing Washington Center
06:52PM 35.9397 -78.6525 59° Northeast 466 536 28,100 1,380 Climbing Washington Center
06:53PM 36.0078 -78.5114 59° Northeast 478 550 30,300 1,500 Climbing Washington Center
06:54PM 36.0736 -78.3778 60° Northeast 473 544 31,200 900 Climbing Washington Center
06:55PM 36.1372 -78.2436 60° Northeast 457 526 32,100 720 Climbing Washington Center
06:56PM 36.2006 -78.1094 59° Northeast 452 520 32,700 480 Climbing Washington Center
06:57PM 36.2681 -77.9725 59° Northeast 457 526 33,100 540 Climbing Washington Center
06:58PM 36.3289 -77.8481 61° Northeast 463 533 33,800 600 Climbing Washington Center
06:59PM 36.3919 -77.7078 60° Northeast 463 533 34,300 300 Climbing Washington Center
07:00PM 36.4547 -77.5700 61° Northeast 457 526 34,400 240 Climbing Washington Center
07:01PM 36.5219 -77.4219 59° Northeast 463 533 34,800 240 Climbing Washington Center
07:02PM 36.5928 -77.2761 60° Northeast 473 544 35,000 60 Climbing Washington Center
07:03PM 36.6594 -77.1300 64° Northeast 480 552 35,000  Level Washington Center
07:04PM 36.7197 -76.9783 74° East 480 552 35,000  Level Washington Center
07:05PM 36.7569 -76.8131 75° East 480 552 35,000  Level Washington Center
07:06PM 36.7919 -76.6475 74° East 486 559 35,000  Level Washington Center
07:07PM 36.8331 -76.4639 73° East 486 559 35,000  Level Washington Center
07:08PM 36.8717 -76.3033 56° Northeast 487 560 35,000  Level Washington Center
07:09PM 36.9475 -76.1611 37° Northeast 482 555 35,000  Level Washington Center
07:11PM 37.1351 -75.9827 36° Northeast 486 559 35,000  Level FlightAware ADS-B
07:12PM 37.2114 -75.9141 36° Northeast 486 559 35,000  Level FlightAware ADS-B
07:12PM 37.2774 -75.8536 35° Northeast 485 558 35,000  Level FlightAware ADS-B
07:13PM 37.3355 -75.8020 36° Northeast 484 557 35,000  Level FlightAware ADS-B
07:13PM 37.3963 -75.7469 33° Northeast 478 550 35,000  Level FlightAware ADS-B
07:14PM 37.4828 -75.6756 36° Northeast 476 548 35,000  Level Washington Center
07:15PM 37.5869 -75.5786 37° Northeast 471 542 35,000  Level Washington Center
07:17PM 37.7640 -75.4116 36° Northeast 472 543 35,000  Level FlightAware ADS-B
07:17PM 37.8239 -75.3566 34° Northeast 471 542 35,000  Level FlightAware ADS-B
07:18PM 37.9058 -75.2864 37° Northeast 471 542 35,000  Level Washington Center
07:20PM 38.0493 -75.1484 36° Northeast 470 541 35,000  Level FlightAware ADS-B
07:20PM 38.1061 -75.0958 36° Northeast 470 541 35,000  Level FlightAware ADS-B
07:21PM 38.1658 -75.0404 36° Northeast 470 541 35,000  Level FlightAware ADS-B
07:21PM 38.2179 -74.9918 36° Northeast 470 541 35,000  Level FlightAware ADS-B
07:22PM 38.3354 -74.8822 36° Northeast 470 541 35,000  Level FlightAware ADS-B
07:23PM 38.3893 -74.8316 36° Northeast 468 539 35,000  Level FlightAware ADS-B
07:23PM 38.4418 -74.7823 36° Northeast 467 537 35,000 180 Level FlightAware ADS-B
07:24PM 38.5041 -74.7238 36° Northeast 466 536 35,200 660 Climbing FlightAware ADS-B
07:24PM 38.5611 -74.6702 36° Northeast 458 527 35,800 840 Climbing FlightAware ADS-B
07:25PM 38.6125 -74.6216 36° Northeast 457 526 36,100 600 Climbing FlightAware ADS-B
07:26PM 38.7026 -74.5364 37° Northeast 454 522 36,700 600 Climbing FlightAware ADS-B
07:26PM 38.7609 -74.4810 36° Northeast 453 521 37,000 240 Climbing FlightAware ADS-B
07:27PM 38.8136 -74.4311 37° Northeast 455 524 37,000  Level FlightAware ADS-B
07:28PM 38.9062 -74.3428 37° Northeast 457 526 37,000  Level FlightAware ADS-B
07:28PM 38.9571 -74.2942 37° Northeast 457 526 37,000  Level FlightAware ADS-B
07:29PM 39.0083 -74.2451 37° Northeast 459 528 37,000  Level FlightAware ADS-B
07:29PM 39.0600 -74.1956 37° Northeast 464 534 37,000  Level FlightAware ADS-B
07:30PM 39.1171 -74.1407 37° Northeast 469 540 37,000  Level FlightAware ADS-B
07:31PM 39.1929 -74.0677 37° Northeast 471 542 37,000  Level FlightAware ADS-B
07:31PM 39.2456 -74.0167 37° Northeast 473 544 37,000  Level FlightAware ADS-B
07:32PM 39.3019 -73.9623 37° Northeast 474 545 37,000  Level FlightAware ADS-B
07:32PM 39.3562 -73.9097 37° Northeast 475 547 37,000  Level FlightAware ADS-B
07:33PM 39.4121 -73.8553 37° Northeast 475 547 37,000  Level FlightAware ADS-B
07:33PM 39.4670 -73.8019 37° Northeast 473 544 37,000  Level FlightAware ADS-B
07:34PM 39.5195 -73.7507 37° Northeast 473 544 37,000  Level FlightAware ADS-B
07:34PM 39.5754 -73.6962 38° Northeast 472 543 37,000  Level FlightAware ADS-B
07:35PM 39.6238 -73.6479 45° Northeast 473 544 37,000  Level FlightAware ADS-B
07:35PM 39.6409 -73.6259 51° Northeast 478 550 37,000  Level FlightAware ADS-B
07:35PM 39.6544 -73.6045 57° Northeast 481 554 37,000  Level FlightAware ADS-B
07:35PM 39.6757 -73.5625 65° Northeast 487 560 37,000  Level FlightAware ADS-B
07:36PM 39.7057 -73.4803 65° Northeast 492 566 37,000  Level FlightAware ADS-B
07:36PM 39.7396 -73.3868 65° Northeast 495 570 37,000  Level FlightAware ADS-B
07:37PM 39.7735 -73.2918 65° Northeast 495 570 37,000  Level FlightAware ADS-B
07:38PM 39.8188 -73.1634 65° Northeast 497 572 37,000  Level FlightAware ADS-B
07:38PM 39.8567 -73.0582 65° Northeast 501 577 37,000  Level FlightAware ADS-B
07:39PM 39.8937 -72.9531 65° Northeast 501 577 37,000 -360 Level FlightAware ADS-B
07:40PM 39.9270 -72.8587 65° Northeast 499 574 36,600 -840 Descending FlightAware ADS-B
07:40PM 39.9584 -72.7691 65° Northeast 490 564 36,100 -960 Descending FlightAware ADS-B
07:41PM 40.0109 -72.6189 65° Northeast 479 551 35,200 -720 Descending FlightAware ADS-B
07:42PM 40.0478 -72.5131 69° East 479 551 35,000 -180 Descending FlightAware ADS-B
07:42PM 40.0644 -72.4564 66° East 481 554 35,000  Level Boston Center
07:43PM 40.1186 -72.2964 65° Northeast 476 548 35,000  Level Boston Center
07:44PM 40.1722 -72.1442 65° Northeast 470 541 35,000  Level Boston Center
07:46PM 40.2860 -71.8185 66° East 462 532 35,000  Level FlightAware ADS-B
07:47PM 40.3148 -71.7335 66° East 461 531 35,000  Level FlightAware ADS-B
07:48PM 40.3676 -71.5767 68° East 459 528 35,000 -540 Level FlightAware ADS-B
07:49PM 40.4303 -71.3769 67° East 454 522 33,700 -1,140 Descending Boston Center
07:50PM 40.4828 -71.2178 67° East 459 528 32,300 -1,380 Descending Boston Center
07:51PM 40.5350 -71.0583 65° Northeast 459 528 31,000 -660 Descending Boston Center
07:52PM 40.5914 -70.9014 69° East 459 528 31,000  Level Boston Center
07:53PM 40.6411 -70.7333 65° Northeast 471 542 31,000  Level Boston Center
07:54PM 40.6969 -70.5731 66° East 471 542 31,000  Level Boston Center
07:55PM 40.7544 -70.4044 67° East 471 542 31,000  Level Boston Center
07:56PM 40.8075 -70.2408 68° East 466 536 31,000  Level Boston Center
07:57PM 40.8603 -70.0717 68° East 478 550 31,000  Level Boston Center
07:58PM 40.9108 -69.9050 67° East 484 557 31,000  Level Boston Center
07:59PM 40.9633 -69.7408 67° East 484 557 31,000  Level Boston Center
08:00PM 41.0156 -69.5792 69° East 484 557 31,000  Level Boston Center
08:01PM 41.0653 -69.4089 67° East 478 550 31,000  Level Boston Center
08:02PM 41.1153 -69.2522 68° East 478 550 31,000  Level Boston Center
08:03PM 41.1667 -69.0842 67° East 478 550 31,000  Level Boston Center
08:04PM 41.2181 -68.9214 69° East 478 550 31,000  Level Boston Center
08:05PM 41.2669 -68.7556 68° East 478 550 31,000  Level Boston Center
08:06PM 41.3139 -68.6036 69° East 488 562 31,000  Level Boston Center
08:07PM 41.3622 -68.4347 68° East 483 556 31,000  Level Boston Center
08:08PM 41.4125 -68.2711 68° East 478 550 31,000  Level Boston Center
08:09PM 41.4625 -68.1042 69° East 478 550 31,000  Level Boston Center
08:10PM 41.5083 -67.9431 68° East 478 550 31,000  Level Boston Center
08:11PM 41.5578 -67.7758 69° East 478 550 31,000  Level Boston Center
08:12PM 41.6053 -67.6139 70° East 478 550 31,000  Level Boston Center
08:13PM 41.6503 -67.4492 71° East 478 550 31,000  Level Boston Center
08:14PM 41.6833 -67.3167 73° East 470 541 31,000  Level Moncton Center
08:15PM 41.7167 -67.1667 70° East 470 541 31,000  Level Moncton Center
08:16PM 41.7667 -66.9833 66° East 480 552 31,000  Level Moncton Center
08:17PM 41.8167 -66.8333 62° Northeast 470 541 31,000  Level Moncton Center
08:18PM 41.8833 -66.6667 75° East 470 541 31,000  Level Moncton Center
08:19PM 41.9167 -66.5000 68° East 470 541 31,000  Level Moncton Center
08:20PM 41.9667 -66.3333 68° East 480 552 31,000  Level Moncton Center
08:21PM 42.0167 -66.1667 68° East 480 552 31,000  Level Moncton Center
08:22PM 42.0667 -66.0000 68° East 480 552 31,000  Level Moncton Center
08:23PM 42.1167 -65.8333 66° East 490 564 31,000  Level Moncton Center
08:24PM 42.1667 -65.6833 70° East 490 564 31,000  Level Moncton Center
08:25PM 42.2167 -65.5000 70° East 480 552 31,000 120 Level Moncton Center
08:26PM 42.2667 -65.3167 68° East 490 564 31,300 600 Climbing Moncton Center
08:27PM 42.3167 -65.1500 68° East 490 564 32,300 900 Climbing Moncton Center
08:28PM 42.3667 -64.9833 70° East 490 564 33,200 900 Climbing Moncton Center
08:29PM 42.4167 -64.8000 66° East 480 552 34,100 600 Climbing Moncton Center
08:30PM 42.4667 -64.6500 70° East 490 564 34,400 540 Climbing Moncton Center
08:31PM 42.5167 -64.4667 70° East 500 575 35,200 900 Climbing Moncton Center
08:32PM 42.5667 -64.2833 75° East 490 564 36,200 720 Climbing Moncton Center
08:33PM 42.6000 -64.1167 68° East 480 552 36,700 360 Climbing Moncton Center
08:34PM 42.6500 -63.9500 68° East 480 552 37,000 120 Climbing Moncton Center
08:35PM 42.7000 -63.7833 70° East 490 564 37,000  Level Moncton Center
08:36PM 42.7500 -63.6000 70° East 490 564 37,000  Level Moncton Center
08:37PM 42.8000 -63.4167 66° East 490 564 37,000  Level Moncton Center
08:38PM 42.8500 -63.2667 70° East 490 564 37,000  Level Moncton Center
08:39PM 42.9000 -63.0833 82° East 490 564 37,000  Level Moncton Center
08:40PM 42.9167 -62.9167 70° East 490 564 37,000  Level Moncton Center
08:41PM 42.9667 -62.7333 69° East 490 564 37,000  Level Moncton Center
08:42PM 43.0167 -62.5500 68° East 490 564 37,000  Level Moncton Center
08:43PM 43.0667 -62.3833 69° East 490 564 37,000  Level Moncton Center
08:44PM 43.1167 -62.2000 69° East 490 564 37,000  Level Moncton Center
08:45PM 43.1667 -62.0167 75° East 490 564 37,000  Level Moncton Center
08:46PM 43.2000 -61.8500 69° East 480 552 37,000  Level Moncton Center
08:47PM 43.2500 -61.6667 69° East 490 564 37,000  Level Moncton Center
08:48PM 43.3000 -61.4833 82° East 490 564 37,000  Level Moncton Center
08:49PM 43.3167 -61.3167 69° East 490 564 37,000  Level Moncton Center
08:50PM 43.3667 -61.1333 68° East 490 564 37,000  Level Moncton Center
08:51PM 43.4167 -60.9667 69° East 490 564 37,000  Level Moncton Center
08:52PM 43.4667 -60.7833 75° East 480 552 37,000  Level Moncton Center
08:53PM 43.5000 -60.6167 69° East 490 564 37,000  Level Moncton Center
08:54PM 43.5500 -60.4333 76° East 490 564 37,000  Level Moncton Center
08:55PM 43.5833 -60.2500 67° East 490 564 37,000  Level Moncton Center
08:56PM 43.6333 -60.0833 74° East 490 564 37,000  Level Moncton Center
08:57PM 43.6667 -59.9167 76° East 480 552 37,000  Level Moncton Center
08:58PM 43.7000 -59.7333 69° East 480 552 37,000  Level Moncton Center
09:00PM 43.8167 -59.3000 82° East 490 564 37,000  Level Gander Center
09:01PM 43.8333 -59.1333 71° East 490 564 37,000  Level Gander Center
09:02PM 43.8667 -59.0000 67° East 490 564 37,000  Level Moncton Center
09:03PM 43.9167 -58.8333 76° East 490 564 37,000  Level Moncton Center
09:06PM 44.0167 -58.2833 74° East 480 552 37,000  Level Moncton Center
09:07PM 44.0500 -58.1167 67° East 480 552 37,000  Level Moncton Center
09:08PM 44.1000 -57.9500 77° East 480 552 37,000  Level Moncton Center
09:09PM 44.1333 -57.7500 67° East 480 552 37,000  Level Moncton Center
09:10PM 44.1833 -57.5833 76° East 480 552 37,000  Level Moncton Center
09:11PM 44.2167 -57.4000 82° East 480 552 37,000  Level Moncton Center
09:12PM 44.2333 -57.2333 71° East 480 552 37,000  Level Moncton Center
09:13PM 44.2833 -57.0333 74° East 470 541 37,000  Level Moncton Center
09:14PM 44.3167 -56.8667 76° East 470 541 37,000  Level Moncton Center
09:15PM 44.3500 -56.6833 83° East 470 541 37,000  Level Moncton Center
09:16PM 44.3667 -56.5000 78° East 470 541 37,000  Level Moncton Center
09:17PM 44.4000 -56.2833 81° East 470 541 37,000  Level Gander Center
09:19PM 44.4333 -55.9833 83° East 460 529 37,000  Level Moncton Center
09:20PM 44.4500 -55.8000 83° East 470 541 37,000  Level Moncton Center
09:21PM 44.4667 -55.6167 83° East 470 541 37,000  Level Moncton Center
09:22PM 44.4833 -55.4167 74° East 480 552 37,000  Level Moncton Center
09:23PM 44.5167 -55.2500 76° East 450 518 37,000  Level Moncton Center
09:24PM 44.5500 -55.0667 83° East 460 529 37,000  Level Moncton Center
09:25PM 44.5667 -54.8833 82° East 470 541 37,000  Level Moncton Center
09:26PM 44.5833 -54.7167 82° East 450 518 37,000  Level Moncton Center
09:27PM 44.6000 -54.5500 83° East 460 529 37,000  Level Moncton Center
09:28PM 44.6167 -54.3500 82° East 470 541 37,000  Level Moncton Center
09:29PM 44.6333 -54.1833 83° East 480 552 37,000  Level Moncton Center
09:30PM 44.6500 -53.9833 82° East 460 529 37,000  Level Moncton Center
09:31PM 44.6667 -53.8167 83° East 460 529 37,000  Level Moncton Center
09:32PM 44.6833 -53.6333 82° East 460 529 37,000  Level Moncton Center
09:33PM 44.7000 -53.4667 83° East 470 541 37,000  Level Moncton Center
09:34PM 44.7167 -53.2667 83° East 470 541 37,000  Level Moncton Center
09:35PM 44.7333 -53.0833 82° East 470 541 37,000  Level Moncton Center
09:36PM 44.7500 -52.9167 83° East 460 529 37,000  Level Moncton Center
09:37PM 44.7667 -52.7167 82° East 470 541 37,000  Level Moncton Center
09:38PM 44.7833 -52.5500 83° East 470 541 37,000  Level Moncton Center
09:39PM 44.8000 -52.3500 82° East 460 529 37,000  Level Moncton Center
09:40PM 44.8167 -52.1833 83° East 460 529 37,000  Level Moncton Center
09:41PM 44.8333 -51.9833 82° East 470 541 37,000  Level Moncton Center
09:42PM 44.8500 -51.8167 90° East 480 552 37,000  Level Moncton Center
09:43PM 44.8500 -51.6500 83° East 460 529 37,000  Level Moncton Center
09:44PM 44.8667 -51.4500 83° East 470 541 37,000  Level Moncton Center
09:45PM 44.8833 -51.2667 77° East 460 529 37,000  Level Moncton Center
09:46PM 44.9167 -51.0667 90° East 460 529 37,000  Level Gander Center
09:47PM 44.9167 -50.9000 83° East 470 541 37,000  Level Gander Center
09:48PM 44.9333 -50.7167 82° East 460 529 37,000  Level Gander Center
09:49PM 44.9500 -50.5500 83° East 460 529 37,000  Level Gander Center
09:50PM 44.9667 -50.3500 82° East 470 541 37,000  Level Gander Center
09:51PM 44.9833 -50.1833 90° East 460 529 37,000  Level Gander Center
09:52PM 44.9833 -50.0000 76° East 460 529 37,000  Level Gander Center
09:53PM 45.0167 -49.8167 74° East 470 541 37,000  Level Gander Center
09:54PM 45.0500 -49.6500 69° East 470 541 37,000  Level Gander Center
09:55PM 45.1000 -49.4667 72° East 460 529 37,000  Level Gander Center
09:56PM 45.1333 -49.3167 69° East 460 529 37,000  Level Gander Center
09:57PM 45.1833 -49.1333 74° East 450 518 37,000  Level Gander Center
09:58PM 45.2167 -48.9667 69° East 460 529 37,000  Level Gander Center
09:59PM 45.2667 -48.7833 72° East 470 541 37,000  Level Gander Center
10:00PM 45.3000 -48.6333 69° East 450 518 37,000  Level Gander Center
10:01PM 45.3500 -48.4500 74° East 460 529 37,000  Level Gander Center
10:02PM 45.3833 -48.2833 73° East 450 518 37,000  Level Gander Center
10:03PM 45.4333 -48.0500 72° East 480 552 37,000  Level Gander Center
10:04PM 45.4667 -47.9000 63° Northeast 460 529 37,000  Level Gander Center
10:05PM 45.5333 -47.7167 82° East 460 529 37,000  Level Gander Center
10:06PM 45.5500 -47.5500 74° East 470 541 37,000  Level Gander Center
10:14PM 45.8652 -46.1382 75° East  Level FlightAware Approximate
10:15PM 45.9046 -45.9553 75° East  Level FlightAware Approximate
10:16PM 45.9436 -45.7721 75° East  Level FlightAware Approximate
10:17PM 45.9823 -45.5887 75° East  Level FlightAware Approximate
10:18PM 46.0208 -45.4050 76° East  Level FlightAware Approximate
10:19PM 46.0589 -45.2210 76° East  Level FlightAware Approximate
10:20PM 46.1082 -45.0428 76° East  Level FlightAware Approximate
10:21PM 46.1446 -44.8578 76° East  Level FlightAware Approximate
10:22PM 46.1807 -44.6726 76° East  Level FlightAware Approximate
10:23PM 46.2165 -44.4871 76° East  Level FlightAware Approximate
10:24PM 46.2520 -44.3014 76° East  Level FlightAware Approximate
10:25PM 46.2873 -44.1155 77° East  Level FlightAware Approximate
10:26PM 46.3222 -43.9293 77° East  Level FlightAware Approximate
10:27PM 46.3568 -43.7429 77° East  Level FlightAware Approximate
10:28PM 46.3910 -43.5562 77° East  Level FlightAware Approximate
10:29PM 46.4250 -43.3694 77° East  Level FlightAware Approximate
10:30PM 46.4587 -43.1823 77° East  Level FlightAware Approximate
10:31PM 46.4921 -42.9949 77° East  Level FlightAware Approximate
10:32PM 46.5252 -42.8073 78° East  Level FlightAware Approximate
10:33PM 46.5580 -42.6195 78° East  Level FlightAware Approximate
10:34PM 46.5904 -42.4315 78° East  Level FlightAware Approximate
10:35PM 46.6226 -42.2433 78° East  Level FlightAware Approximate
10:36PM 46.6544 -42.0548 78° East  Level FlightAware Approximate
10:37PM 46.6860 -41.8661 78° East  Level FlightAware Approximate
10:38PM 46.7172 -41.6772 78° East  Level FlightAware Approximate
10:39PM 46.7481 -41.4881 79° East  Level FlightAware Approximate
10:40PM 46.7787 -41.2987 79° East  Level FlightAware Approximate
10:41PM 46.8090 -41.1091 79° East  Level FlightAware Approximate
10:42PM 46.8390 -40.9194 79° East  Level FlightAware Approximate
10:43PM 46.8686 -40.7294 79° East  Level FlightAware Approximate
10:44PM 46.8980 -40.5392 79° East  Level FlightAware Approximate
10:45PM 46.9270 -40.3488 79° East  Level FlightAware Approximate
10:46PM 46.9557 -40.1582 80° East  Level FlightAware Approximate
10:47PM 47.0034 -39.9762 80° East  Level FlightAware Approximate
10:48PM 47.0311 -39.7850 80° East  Level FlightAware Approximate
10:49PM 47.0585 -39.5936 80° East  Level FlightAware Approximate
10:50PM 47.0856 -39.4020 80° East  Level FlightAware Approximate
10:51PM 47.1123 -39.2102 80° East  Level FlightAware Approximate
10:52PM 47.1385 -39.0199 81° East  Level FlightAware Approximate
10:53PM 47.1644 -38.8294 81° East  Level FlightAware Approximate
10:54PM 47.1900 -38.6388 81° East  Level FlightAware Approximate
10:55PM 47.2153 -38.4479 81° East  Level FlightAware Approximate
10:56PM 47.2402 -38.2569 81° East  Level FlightAware Approximate
10:57PM 47.2648 -38.0657 81° East  Level FlightAware Approximate
10:58PM 47.2891 -37.8743 81° East  Level FlightAware Approximate
10:59PM 47.3131 -37.6828 82° East  Level FlightAware Approximate
11:00PM 47.3368 -37.4911 82° East  Level FlightAware Approximate
11:01PM 47.3601 -37.2992 82° East  Level FlightAware Approximate
11:02PM 47.3831 -37.1071 82° East  Level FlightAware Approximate
11:03PM 47.4058 -36.9149 82° East  Level FlightAware Approximate
11:04PM 47.4282 -36.7225 82° East  Level FlightAware Approximate
11:05PM 47.4503 -36.5299 82° East  Level FlightAware Approximate
11:06PM 47.4720 -36.3372 83° East  Level FlightAware Approximate
11:07PM 47.4823 -36.1442 83° East  Level FlightAware Approximate
11:08PM 47.5142 -35.9545 83° East  Level FlightAware Approximate
11:09PM 47.5457 -35.7645 83° East  Level FlightAware Approximate
11:10PM 47.5769 -35.5743 83° East  Level FlightAware Approximate
11:11PM 47.6078 -35.3839 83° East  Level FlightAware Approximate
11:12PM 47.6384 -35.1932 84° East  Level FlightAware Approximate
11:13PM 47.6687 -35.0023 84° East  Level FlightAware Approximate
11:14PM 47.6987 -34.8112 84° East  Level FlightAware Approximate
11:15PM 47.7283 -34.6199 84° East  Level FlightAware Approximate
11:16PM 47.7576 -34.4284 84° East  Level FlightAware Approximate
11:17PM 47.7866 -34.2366 84° East  Level FlightAware Approximate
11:18PM 47.8153 -34.0447 85° East  Level FlightAware Approximate
11:19PM 47.8437 -33.8525 85° East  Level FlightAware Approximate
11:20PM 47.8717 -33.6601 85° East  Level FlightAware Approximate
11:21PM 47.8994 -33.4675 85° East  Level FlightAware Approximate
11:22PM 47.9268 -33.2747 85° East  Level FlightAware Approximate
11:23PM 47.9539 -33.0817 86° East  Level FlightAware Approximate
11:24PM 47.9807 -32.8885 86° East  Level FlightAware Approximate
11:25PM 48.0071 -32.6951 86° East  Level FlightAware Approximate
11:26PM 48.0332 -32.5015 86° East  Level FlightAware Approximate
11:27PM 48.0590 -32.3077 86° East  Level FlightAware Approximate
11:28PM 48.0844 -32.1137 86° East  Level FlightAware Approximate
11:29PM 48.1095 -31.9195 87° East  Level FlightAware Approximate
11:30PM 48.1343 -31.7252 87° East  Level FlightAware Approximate
11:31PM 48.1588 -31.5306 87° East  Level FlightAware Approximate
11:32PM 48.1829 -31.3359 87° East  Level FlightAware Approximate
11:33PM 48.2067 -31.1410 87° East  Level FlightAware Approximate
11:34PM 48.2302 -30.9459 88° East  Level FlightAware Approximate
11:35PM 48.2534 -30.7506 88° East  Level FlightAware Approximate
11:36PM 48.2762 -30.5551 88° East  Level FlightAware Approximate
11:37PM 48.2987 -30.3595 88° East  Level FlightAware Approximate
11:38PM 48.3204 -30.1636 88° East  Level FlightAware Approximate
11:39PM 48.3418 -29.9675 88° East  Level FlightAware Approximate
11:40PM 48.3628 -29.7713 89° East  Level FlightAware Approximate
11:41PM 48.3835 -29.5749 89° East  Level FlightAware Approximate
11:42PM 48.4039 -29.3787 89° East  Level FlightAware Approximate
11:43PM 48.4239 -29.1823 89° East  Level FlightAware Approximate
11:44PM 48.4435 -28.9858 89° East  Level FlightAware Approximate
11:45PM 48.4629 -28.7892 90° East  Level FlightAware Approximate
11:46PM 48.4819 -28.5924 90° East  Level FlightAware Approximate
11:47PM 48.5005 -28.3954 90° East  Level FlightAware Approximate
11:48PM 48.5189 -28.1983 90° East  Level FlightAware Approximate
11:49PM 48.5368 -28.0011 90° East  Level FlightAware Approximate
11:50PM 48.5544 -27.8044 91° East  Level FlightAware Approximate
11:51PM 48.5717 -27.6077 91° East  Level FlightAware Approximate
11:52PM 48.5886 -27.4107 91° East  Level FlightAware Approximate
11:53PM 48.6052 -27.2137 91° East  Level FlightAware Approximate
11:54PM 48.6214 -27.0165 91° East  Level FlightAware Approximate
11:55PM 48.6373 -26.8192 91° East  Level FlightAware Approximate
11:56PM 48.6529 -26.6218 92° East  Level FlightAware Approximate
11:57PM 48.6682 -26.4242 92° East  Level FlightAware Approximate
11:58PM 48.6830 -26.2266 92° East  Level FlightAware Approximate
11:59PM 48.6976 -26.0288 92° East  Level FlightAware Approximate
12:00AM 48.7118 -25.8309 92° East  Level FlightAware Approximate
12:01AM 48.7257 -25.6329 93° East  Level FlightAware Approximate
12:02AM 48.7393 -25.4348 93° East  Level FlightAware Approximate
12:03AM 48.7524 -25.2366 93° East  Level FlightAware Approximate
12:04AM 48.7653 -25.0383 93° East  Level FlightAware Approximate
12:05AM 48.7778 -24.8399 93° East  Level FlightAware Approximate
12:06AM 48.7900 -24.6413 94° East  Level FlightAware Approximate
12:07AM 48.8018 -24.4427 94° East  Level FlightAware Approximate
12:08AM 48.8134 -24.2440 94° East  Level FlightAware Approximate
12:09AM 48.8245 -24.0452 94° East  Level FlightAware Approximate
12:10AM 48.8353 -23.8464 94° East  Level FlightAware Approximate
12:11AM 48.8458 -23.6474 95° East  Level FlightAware Approximate
12:12AM 48.8559 -23.4483 95° East  Level FlightAware Approximate
12:13AM 48.8657 -23.2492 95° East  Level FlightAware Approximate
12:14AM 48.8751 -23.0500 95° East  Level FlightAware Approximate
12:15AM 48.8842 -22.8507 96° East  Level FlightAware Approximate
12:16AM 48.8930 -22.6514 96° East  Level FlightAware Approximate
12:17AM 48.9014 -22.4520 96° East  Level FlightAware Approximate
12:18AM 48.9095 -22.2525 96° East  Level FlightAware Approximate
12:19AM 48.9172 -22.0529 96° East  Level FlightAware Approximate
12:20AM 48.9246 -21.8533 97° East  Level FlightAware Approximate
12:21AM 48.9316 -21.6537 97° East  Level FlightAware Approximate
12:22AM 48.9383 -21.4540 97° East  Level FlightAware Approximate
12:23AM 48.9446 -21.2542 97° East  Level FlightAware Approximate
12:24AM 48.9506 -21.0544 97° East  Level FlightAware Approximate
12:25AM 48.9563 -20.8545 98° East  Level FlightAware Approximate
12:26AM 48.9616 -20.6546 98° East  Level FlightAware Approximate
12:27AM 48.9666 -20.4546 98° East  Level FlightAware Approximate
12:28AM 48.9712 -20.2546 98° East  Level FlightAware Approximate
12:29AM 48.9755 -20.0546 99° East  Level FlightAware Approximate
12:30AM 49.0021 -19.8660 99° East  Level FlightAware Approximate
12:31AM 49.0052 -19.6658 99° East  Level FlightAware Approximate
12:32AM 49.0079 -19.4656 99° East  Level FlightAware Approximate
12:33AM 49.0103 -19.2654 100° East  Level FlightAware Approximate
12:34AM 49.0123 -19.0651 100° East  Level FlightAware Approximate
12:35AM 49.0140 -18.8648 100° East  Level FlightAware Approximate
12:36AM 49.0153 -18.6645 100° East  Level FlightAware Approximate
12:37AM 49.0163 -18.4642 100° East  Level FlightAware Approximate
12:38AM 49.0170 -18.2639 101° East  Level FlightAware Approximate
12:39AM 49.0173 -18.0636 101° East  Level FlightAware Approximate
12:40AM 49.0172 -17.8633 101° East  Level FlightAware Approximate
12:41AM 49.0168 -17.6630 101° East  Level FlightAware Approximate
12:42AM 49.0160 -17.4547 102° East  Level FlightAware Approximate
12:43AM 49.0149 -17.2463 102° East  Level FlightAware Approximate
12:44AM 49.0134 -17.0380 102° East  Level FlightAware Approximate
12:45AM 49.0115 -16.8297 102° East  Level FlightAware Approximate
12:46AM 49.0092 -16.6214 103° East  Level FlightAware Approximate
12:47AM 49.0065 -16.4131 103° East  Level FlightAware Approximate
12:48AM 49.0035 -16.2049 103° East  Level FlightAware Approximate
12:49AM 49.0001 -15.9967 103° East  Level FlightAware Approximate
12:50AM 48.9963 -15.7885 104° East  Level FlightAware Approximate
12:51AM 48.9922 -15.5803 104° East  Level FlightAware Approximate
12:52AM 48.9876 -15.3722 104° East  Level FlightAware Approximate
12:53AM 48.9827 -15.1641 104° East  Level FlightAware Approximate
12:54AM 48.9775 -14.9561 105° East  Level FlightAware Approximate
12:55AM 48.9718 -14.7481 105° East  Level FlightAware Approximate
12:56AM 48.9658 -14.5401 105° East  Level FlightAware Approximate
12:57AM 48.9594 -14.3322 106° East  Level FlightAware Approximate
12:58AM 48.9526 -14.1244 106° East  Level FlightAware Approximate
12:59AM 48.9455 -13.9166 106° East  Level FlightAware Approximate
01:00AM 48.9313 -13.7098 106° East  Level FlightAware Approximate
01:01AM 48.8829 -13.5154 106° East  Level FlightAware Approximate
01:02AM 48.8341 -13.3214 107° East  Level FlightAware Approximate
01:03AM 48.7850 -13.1278 107° East  Level FlightAware Approximate
01:04AM 48.7355 -12.9346 107° East  Level FlightAware Approximate
01:05AM 48.6858 -12.7417 107° East  Level FlightAware Approximate
01:06AM 48.6357 -12.5492 107° East  Level FlightAware Approximate
01:07AM 48.5853 -12.3571 107° East  Level FlightAware Approximate
01:08AM 48.5346 -12.1654 107° East  Level FlightAware Approximate
01:09AM 48.4835 -11.9741 107° East  Level FlightAware Approximate
01:10AM 48.4322 -11.7832 107° East  Level FlightAware Approximate
01:11AM 48.3805 -11.5926 107° East  Level FlightAware Approximate
01:12AM 48.3285 -11.4024 108° East  Level FlightAware Approximate
01:13AM 48.2762 -11.2127 108° East  Level FlightAware Approximate
01:14AM 48.2236 -11.0233 108° East  Level FlightAware Approximate
01:15AM 48.1707 -10.8343 108° East  Level FlightAware Approximate
01:16AM 48.1175 -10.6456 108° East  Level FlightAware Approximate
01:17AM 48.0640 -10.4574 108° East  Level FlightAware Approximate
01:18AM 48.0101 -10.2696 108° East  Level FlightAware Approximate
01:19AM 47.9560 -10.0822 108° East  Level FlightAware Approximate
01:20AM 47.9016 -9.8951 108° East  Level FlightAware Approximate
01:21AM 47.8468 -9.7085 108° East  Level FlightAware Approximate
01:22AM 47.7918 -9.5222 108° East  Level FlightAware Approximate
01:23AM 47.7364 -9.3364 108° East  Level FlightAware Approximate
01:24AM 47.6828 -9.1577 108° East  Level FlightAware Approximate
01:25AM 47.6289 -8.9795 109° East  Level FlightAware Approximate
01:26AM 47.5748 -8.8016 109° East  Level FlightAware Approximate
01:27AM 47.5204 -8.6240 109° East  Level FlightAware Approximate
01:28AM 47.4656 -8.4469 109° East  Level FlightAware Approximate
01:29AM 47.4107 -8.2701 109° East  Level FlightAware Approximate
01:30AM 47.3554 -8.0937 109° East  Level FlightAware Approximate
01:31AM 47.2999 -7.9176 109° East  Level FlightAware Approximate
01:32AM 47.2441 -7.7419 109° East  Level FlightAware Approximate
01:33AM 47.1881 -7.5666 109° East  Level FlightAware Approximate
01:34AM 47.1318 -7.3917 109° East  Level FlightAware Approximate
01:35AM 47.0752 -7.2171 109° East  Level FlightAware Approximate
01:36AM 47.0199 -7.0476 109° East  Level FlightAware Approximate
01:37AM 46.9643 -6.8784 109° East  Level FlightAware Approximate
01:38AM 46.9085 -6.7096 109° East  Level FlightAware Approximate
01:39AM 46.8524 -6.5411 109° East  Level FlightAware Approximate
01:40AM 46.7961 -6.3730 109° East  Level FlightAware Approximate
01:41AM 46.7396 -6.2053 109° East  Level FlightAware Approximate
01:42AM 46.6828 -6.0379 109° East  Level FlightAware Approximate
01:43AM 46.6239 -5.8656 109° East  Level FlightAware Approximate
01:44AM 46.5648 -5.6936 109° East  Level FlightAware Approximate
01:45AM 46.5055 -5.5221 109° East  Level FlightAware Approximate
01:46AM 46.4596 -5.3422 109° East  Level FlightAware Approximate
01:47AM 46.4135 -5.1626 109° East  Level FlightAware Approximate
01:48AM 46.3670 -4.9833 109° East  Level FlightAware Approximate
01:49AM 46.3203 -4.8043 110° East  Level FlightAware Approximate
01:50AM 46.2733 -4.6256 110° East  Level FlightAware Approximate
01:51AM 46.2261 -4.4472 110° East  Level FlightAware Approximate
01:52AM 46.1785 -4.2692 110° East  Level FlightAware Approximate
01:53AM 46.1307 -4.0914 110° East  Level FlightAware Approximate
01:54AM 46.0826 -3.9140 110° East  Level FlightAware Approximate
01:55AM 46.0342 -3.7368 110° East  Level FlightAware Approximate
01:56AM 45.9856 -3.5600 110° East  Level FlightAware Approximate
01:57AM 45.9367 -3.3835 110° East  Level FlightAware Approximate
01:58AM 45.8875 -3.2073 111° Southeast  Level FlightAware Approximate
01:59AM 45.8380 -3.0314 111° Southeast  Level FlightAware Approximate
02:00AM 45.7883 -2.8558 111° Southeast  Level FlightAware Approximate
02:01AM 45.7383 -2.6805 111° Southeast  Level FlightAware Approximate
02:02AM 45.6880 -2.5056 111° Southeast  Level FlightAware Approximate
02:03AM 45.6375 -2.3310 111° Southeast  Level FlightAware Approximate
02:04AM 45.5867 -2.1566 111° Southeast  Level FlightAware Approximate
02:05AM 45.5356 -1.9826 111° Southeast  Level FlightAware Approximate
02:06AM 45.4843 -1.8089 111° Southeast  Level FlightAware Approximate
02:07AM 45.4327 -1.6356 111° Southeast  Level FlightAware Approximate
02:08AM 45.3958 -1.4549 112° Southeast  Level FlightAware Approximate
02:09AM 45.3586 -1.2744 112° Southeast  Level FlightAware Approximate
02:10AM 45.3212 -1.0942 112° Southeast  Level FlightAware Approximate
02:11AM 45.2834 -0.9143 112° Southeast  Level FlightAware Approximate
02:12AM 45.2454 -0.7345 113° Southeast  Level FlightAware Approximate
02:13AM 45.2070 -0.5550 113° Southeast  Level FlightAware Approximate
02:14AM 45.1684 -0.3758 113° Southeast  Level FlightAware Approximate
02:15AM 45.1296 -0.1968 114° Southeast  Level FlightAware Approximate
02:16AM 45.0904 -0.0180 114° Southeast  Level FlightAware Approximate
02:17AM 45.0510 0.1605 114° Southeast  Level FlightAware Approximate
02:18AM 45.0112 0.3388 115° Southeast  Level FlightAware Approximate
02:19AM 44.9713 0.5168 115° Southeast  Level FlightAware Approximate
02:20AM 44.9310 0.6945 116° Southeast  Level FlightAware Approximate
02:21AM 44.8904 0.8721 116° Southeast  Level FlightAware Approximate
02:22AM 44.8496 1.0493 117° Southeast  Level FlightAware Approximate
02:23AM 44.8085 1.2264 117° Southeast  Level FlightAware Approximate
02:24AM 44.7672 1.4031 118° Southeast  Level FlightAware Approximate
02:25AM 44.7255 1.5796 118° Southeast  Level FlightAware Approximate
02:26AM 44.6836 1.7559 119° Southeast  Level FlightAware Approximate
02:27AM 44.6414 1.9319 120° Southeast  Level FlightAware Approximate
02:28AM 44.5990 2.1076 121° Southeast  Level FlightAware Approximate
02:29AM 44.5563 2.2831 121° Southeast  Level FlightAware Approximate
02:30AM 44.5133 2.4583 122° Southeast  Level FlightAware Approximate
02:31AM 44.4700 2.6333 124° Southeast  Level FlightAware Approximate
02:32AM 44.4265 2.8080 125° Southeast  Level FlightAware Approximate
02:33AM 44.3827 2.9825 126° Southeast  Level FlightAware Approximate
02:34AM 44.3387 3.1567 128° Southeast  Level FlightAware Approximate
02:35AM 44.2944 3.3306 130° Southeast  Level FlightAware Approximate
02:37AM 43.4775 4.6612 116° Southeast 497 572 39,000  Level FlightAware ADS-B
02:37AM 43.4419 4.7595 117° Southeast 497 572 39,000  Level FlightAware ADS-B
02:38AM 43.4106 4.8456 117° Southeast 497 572 39,000  Level FlightAware ADS-B
02:38AM 43.3952 4.8880 117° Southeast 497 572 39,000  Level FlightAware ADS-B
02:38AM 43.3636 4.9745 117° Southeast 497 572 39,000  Level FlightAware ADS-B
02:39AM 43.3316 5.0618 117° Southeast 498 573 39,000  Level FlightAware ADS-B
02:39AM 43.3005 5.1465 117° Southeast 499 574 39,000  Level FlightAware ADS-B
02:40AM 43.2869 5.1835 112° Southeast 498 573 39,000  Level FlightAware ADS-B
02:40AM 43.2624 5.2654 106° East 498 573 39,000  Level FlightAware ADS-B
02:40AM 43.2477 5.3338 102° East 497 572 39,000  Level FlightAware ADS-B
02:41AM 43.2404 5.3802 97° East 498 573 39,000  Level FlightAware ADS-B
02:41AM 43.2328 5.4592 92° East 498 573 39,000  Level FlightAware ADS-B
02:42AM 43.2308 5.5533 91° East 499 574 39,000  Level FlightAware ADS-B
02:42AM 43.2301 5.6516 91° East 499 574 39,000  Level FlightAware ADS-B
02:43AM 43.2294 5.7487 91° East 501 577 39,000  Level FlightAware ADS-B
02:43AM 43.2283 5.8670 91° East 502 578 39,000  Level FlightAware ADS-B
02:44AM 43.2273 5.9711 91° East 498 573 39,000  Level FlightAware ADS-B
02:44AM 43.2261 6.0805 91° East 491 565 39,000  Level FlightAware ADS-B
02:45AM 43.2251 6.1739 95° East 494 568 39,000  Level FlightAware ADS-B
02:45AM 43.2218 6.2303 99° East 494 568 39,000  Level FlightAware ADS-B
02:45AM 43.2159 6.2799 104° East 493 567 39,000  Level FlightAware ADS-B
02:46AM 43.1998 6.3700 104° East 494 568 39,000  Level FlightAware ADS-B
02:47AM 43.1805 6.4737 104° East 494 568 39,000  Level FlightAware ADS-B
02:47AM 43.1624 6.5703 105° East 497 572 39,000  Level FlightAware ADS-B
02:48AM 43.1450 6.6621 104° East 500 575 39,000  Level FlightAware ADS-B
02:48AM 43.1277 6.7541 105° East 498 573 39,000  Level FlightAware ADS-B
02:49AM 43.1098 6.8477 105° East 497 572 39,000  Level FlightAware ADS-B
02:49AM 43.0913 6.9449 105° East 498 573 39,000  Level FlightAware ADS-B
02:50AM 43.0730 7.0396 105° East 498 573 39,000  Level FlightAware ADS-B
02:50AM 43.0491 7.1630 105° East 493 567 39,000  Level FlightAware ADS-B
02:51AM 43.0315 7.2537 105° East 494 568 39,000  Level FlightAware ADS-B
02:51AM 43.0133 7.3468 105° East 496 571 39,000  Level FlightAware ADS-B
02:52AM 42.9949 7.4409 105° East 498 573 39,000  Level FlightAware ADS-B
02:52AM 42.9767 7.5323 105° East 499 574 39,000  Level FlightAware ADS-B
02:53AM 42.9573 7.6305 105° East 499 574 39,000  Level FlightAware ADS-B
02:53AM 42.9374 7.7305 105° East 499 574 39,000  Level FlightAware ADS-B
02:54AM 42.9181 7.8264 105° East 500 575 39,000  Level FlightAware ADS-B
02:55AM 42.8978 7.9277 105° East 499 574 39,000  Level FlightAware ADS-B
02:55AM 42.8795 8.0184 105° East 500 575 39,000 -540 Level FlightAware ADS-B
02:56AM 42.8598 8.1155 105° East 502 578 38,500 -1,020 Descending FlightAware ADS-B
02:56AM 42.8412 8.2075 106° East 498 573 38,000 -960 Descending FlightAware ADS-B
02:57AM 42.8215 8.3037 106° East 492 566 37,500 -1,680 Descending FlightAware ADS-B
02:57AM 42.8025 8.3948 106° East 492 566 36,300 -2,760 Descending FlightAware ADS-B
02:58AM 42.7827 8.4899 106° East 499 574 34,700 -3,000 Descending FlightAware ADS-B
02:58AM 42.7626 8.5868 106° East 500 575 33,100 -3,000 Descending FlightAware ADS-B
02:59AM 42.7405 8.6924 106° East 497 572 31,400 -3,660 Descending FlightAware ADS-B
02:59AM 42.7195 8.7927 106° East 511 588 28,900 -3,420 Descending FlightAware ADS-B
03:00AM 42.6995 8.8871 106° East 497 572 27,700 -2,100 Descending FlightAware ADS-B
03:00AM 42.6782 8.9876 106° East 486 559 26,700 -1,500 Descending FlightAware ADS-B
03:03AM 42.5993 9.3556 111° Southeast 461 531 23,600 -1,440 Descending FlightAware ADS-B
03:10AM 42.2396 10.5918 110° East  Level FlightAware Approximate
03:11AM 42.1937 10.7608 110° East  Level FlightAware Approximate
03:12AM 42.1483 10.9300 110° East  Level FlightAware Approximate
03:13AM 42.1027 11.0989 111° Southeast  Level FlightAware Approximate
03:14AM 42.0552 11.2666 107° East  Level FlightAware Approximate
03:15AM 42.0153 11.4378 111° Southeast  Level FlightAware Approximate
03:16AM 41.9679 11.6055 112° Southeast  Level FlightAware Approximate
03:17AM 41.9171 11.7706 107° East  Level FlightAware Approximate
03:18AM 41.8783 11.9420 114° Southeast  Level FlightAware Approximate
03:19AM 41.8257 12.1017 105° East  Level FlightAware Approximate
03:20AM 41.8000 12.2333 71° East  Level FlightAware Approximate
03:21AM 41.8432 12.4026 251° West  Level Estimated
03:22AM 41.8000 12.2333 71° East  Level Estimated
03:23AM 41.8432 12.4026 251° West  Level Estimated
03:24AM 41.8000 12.2333 71° East  Level Estimated
03:25AM 41.8432 12.4026 251° West  Level Estimated
03:26AM 41.8000 12.2333 360° North  Level Estimated
03:27AM 41.8000 12.2333 71° East  Level FlightAware Approximate
03:28AM 41.8432 12.4026 251° West  Level Estimated
03:29AM 41.8000 12.2333 71° East  Level FlightAware Approximate
03:30AM 41.8432 12.4026 71° East  Level Estimated